Aeroporto :
LOGIN :

Iscrizione | Disclaimer

   EN    FR    IT 

 










Sommario :    VFR   VFR Marginale   IFR   IFR Intensivo   IFR Molto Intensivo
Visibilità : 
Base nubi : 
>= 8 km
>= 3000ft
5 / 8 km
1000 / 3000 ft
1500m / 5 km
500 / 1000 ft
800 / 1500m
200 / 500 ft
< 800m
< 200 ft
Simboli :   Temporali  Nebbia  Neve Forte  Precipitazioni Forti  Vento > 20 kt
SIGMETs :   Varie  Temporali  Ghiacco  Turbolenza  Onda orograficha  Ceneri Vulcaniche






- Altitudine del aeroporto : 22 ft
- Codice IATA : LDY


EGAE - Londonderry Eglington

ULTIMO METAR :
  • 291820Z 24021KT 9999 FEW012 BKN023 09/08 Q0998

METARs OBSOLETI :
  • 291750Z 24021KT 9999 VCSH FEW011 BKN020 09/08 Q0998
  • 291720Z 24022KT 9999 VCSH FEW011 OVC021 10/08 Q0998
  • 291650Z 24019KT 9999 -SHRA FEW014 OVC023 10/08 Q0998
  • 291620Z 25020KT 9999 -SHRA FEW014 BKN019 10/07 Q0998
  • 291550Z 25023KT 9999 VCSH FEW014 BKN018 10/08 Q0997
  • 291520Z 25026G36KT 9999 VCSH FEW013 BKN021 10/08 Q0997

TAF TAF EGAE
Valido dal 29 a 18 ore il 29 a 21 ore UTC


291658Z 2918/2921 24017KT 9999 FEW012 SCT025
TEMPO 2918/2921 23020G30KT 6000 RA -RADZ BKN014



MetMap, La meteo Aeronautica in un colpo d'occhio ! - Copyright ORBIFLY Dicembre 2007 - Disclaimer

ORBIFLY MET'MAP TEAM :

Programmazione e sviluppo : Alexandra Zaïnal
Concezione : Baudouin d'Aumeries
Aiuto per la programmazione : Marc-Olivier Méhu
Supporto tecnico e logistico : Manuel Goepfert
Aiuto per la traduzione : Arnaldo La Scala

Contatto : metmap@orbifly.com




FONTI E CREDITI :

   NOAA